Time;durP1;ratioP1;P1;durP2;ratioP2;P2;SDS_P1;SDS_P2;PMS_P1;PMS_P2;Temp;Humidity;BMP_temperature;BMP_pressure;BME280_temperature;BME280_humidity;BME280_pressure;Samples;Min_cycle;Max_cycle;Signal;HPM_P1;HPM_P2
2022/10/03 00:02:25;;;;;;;20.13;2.90;;;11.50;99.90;;;;;;5147249;27;20121;-62
2022/10/03 00:05:02;;;;;;;17.67;3.78;;;11.60;99.90;;;;;;5128658;27;20046;-63
2022/10/03 00:07:34;;;;;;;15.45;2.97;;;11.60;99.90;;;;;;5098571;27;20565;-62
2022/10/03 00:10:35;;;;;;;21.83;3.20;;;11.60;99.90;;;;;;5135212;27;20133;-62
2022/10/03 00:13:33;;;;;;;20.90;3.47;;;11.60;99.90;;;;;;5050405;27;20043;-62
2022/10/03 00:16:08;;;;;;;19.98;3.42;;;11.60;99.90;;;;;;5125140;27;20042;-62
2022/10/03 00:19:11;;;;;;;21.35;3.97;;;11.50;99.90;;;;;;5119669;27;20039;-62
2022/10/03 00:22:05;;;;;;;15.98;3.20;;;11.60;99.90;;;;;;5123805;27;20137;-62
2022/10/03 00:24:38;;;;;;;15.32;2.78;;;11.60;99.90;;;;;;5129979;27;20047;-63
2022/10/03 00:27:39;;;;;;;19.45;3.45;;;11.60;99.90;;;;;;5124954;27;20544;-62
2022/10/03 00:30:18;;;;;;;19.52;3.30;;;11.50;99.90;;;;;;5102567;27;20078;-62
2022/10/03 00:33:05;;;;;;;17.30;3.13;;;11.50;99.90;;;;;;5093384;27;20467;-62
2022/10/03 00:35:31;;;;;;;21.08;4.18;;;11.50;99.90;;;;;;5108371;27;20634;-62
2022/10/03 00:38:18;;;;;;;19.88;4.28;;;11.50;99.90;;;;;;5123184;27;20039;-62
2022/10/03 00:41:22;;;;;;;14.30;3.05;;;11.50;99.90;;;;;;5121789;27;20425;-62
2022/10/03 00:44:18;;;;;;;20.08;3.38;;;11.50;99.90;;;;;;5080249;27;20043;-64
2022/10/03 00:47:05;;;;;;;21.08;3.42;;;11.50;99.90;;;;;;5142194;27;20046;-62
2022/10/03 00:49:50;;;;;;;22.10;3.60;;;11.50;99.90;;;;;;5145061;27;20723;-62
2022/10/03 00:52:28;;;;;;;14.32;3.20;;;11.40;99.90;;;;;;5140869;27;20043;-63
2022/10/03 00:55:00;;;;;;;19.48;3.83;;;11.50;99.90;;;;;;5123442;27;20046;-64
2022/10/03 00:57:29;;;;;;;20.52;4.22;;;11.40;99.90;;;;;;5110427;27;20135;-64
2022/10/03 01:00:01;;;;;;;18.63;3.40;;;11.40;99.90;;;;;;5147366;27;20054;-63
2022/10/03 01:02:38;;;;;;;21.75;3.45;;;11.30;99.90;;;;;;5116371;27;20038;-64
2022/10/03 01:05:49;;;;;;;16.40;3.42;;;11.40;99.90;;;;;;5144987;27;20119;-63
2022/10/03 01:08:36;;;;;;;14.70;3.92;;;11.40;99.90;;;;;;5100297;27;20074;-64
2022/10/03 01:11:17;;;;;;;25.95;4.28;;;11.30;99.90;;;;;;5101225;27;20107;-62
2022/10/03 01:13:53;;;;;;;19.95;4.22;;;11.40;99.90;;;;;;5084954;27;20169;-62
2022/10/03 01:16:36;;;;;;;21.20;4.90;;;11.30;99.90;;;;;;5140206;27;20042;-62
2022/10/03 01:19:39;;;;;;;22.38;3.70;;;11.30;99.90;;;;;;5120734;27;20604;-62
2022/10/03 01:22:30;;;;;;;19.17;3.65;;;11.30;99.90;;;;;;5116591;27;20047;-62
2022/10/03 01:25:17;;;;;;;20.08;3.38;;;11.30;99.90;;;;;;5084617;27;20039;-62
2022/10/03 01:31:03;;;;;;;19.98;3.03;;;11.30;99.90;;;;;;5041140;27;20058;-62
2022/10/03 01:33:30;;;;;;;20.95;3.70;;;11.30;99.90;;;;;;5095437;27;20066;-62
2022/10/03 01:36:54;;;;;;;22.65;3.60;;;11.30;99.90;;;;;;5109235;27;20192;-61
2022/10/03 01:39:45;;;;;;;21.67;3.15;;;11.30;99.90;;;;;;5036926;28;20826;-64
2022/10/03 01:42:19;;;;;;;20.67;3.88;;;11.30;99.90;;;;;;5020880;28;20151;-64
2022/10/03 01:45:00;;;;;;;23.42;2.95;;;11.30;99.90;;;;;;5061251;27;20039;-63
2022/10/03 01:47:36;;;;;;;19.15;3.78;;;11.30;99.90;;;;;;5102171;27;20065;-64
2022/10/03 01:50:17;;;;;;;13.82;2.83;;;11.30;99.90;;;;;;5108143;27;20057;-62
2022/10/03 01:53:12;;;;;;;16.13;3.08;;;11.30;99.90;;;;;;5124713;27;20050;-62
2022/10/03 01:55:48;;;;;;;19.42;3.10;;;11.30;99.90;;;;;;5090142;27;20082;-62
2022/10/03 01:58:30;;;;;;;23.63;3.05;;;11.30;99.90;;;;;;5123447;27;20049;-62
2022/10/03 02:01:06;;;;;;;13.60;2.70;;;11.30;99.90;;;;;;5094064;27;20046;-61
2022/10/03 02:03:35;;;;;;;20.50;3.00;;;11.30;99.90;;;;;;5125840;27;20121;-62
2022/10/03 02:06:01;;;;;;;16.60;2.90;;;11.30;99.90;;;;;;5104504;27;20042;-62
2022/10/03 02:08:44;;;;;;;23.77;2.90;;;11.30;99.90;;;;;;5147513;27;20045;-61
2022/10/03 02:11:10;;;;;;;17.23;2.53;;;11.30;99.90;;;;;;5110901;27;20566;-62
2022/10/03 02:13:58;;;;;;;17.05;2.90;;;11.30;99.90;;;;;;5096324;28;20051;-62
2022/10/03 02:16:33;;;;;;;17.05;2.60;;;11.30;99.90;;;;;;5100333;27;20055;-62
2022/10/03 02:19:32;;;;;;;17.15;3.15;;;11.30;99.90;;;;;;5128289;27;20038;-63
2022/10/03 02:21:59;;;;;;;26.02;3.45;;;11.30;99.90;;;;;;5128924;27;20095;-62
2022/10/03 02:24:47;;;;;;;18.65;2.58;;;11.30;99.90;;;;;;5123686;27;20047;-62
2022/10/03 02:27:20;;;;;;;15.23;2.42;;;11.30;99.90;;;;;;5113843;27;20050;-62
2022/10/03 02:30:04;;;;;;;19.20;3.03;;;11.30;99.90;;;;;;5104834;28;20047;-62
2022/10/03 02:32:51;;;;;;;21.08;3.33;;;11.30;99.90;;;;;;5136327;27;20154;-62
2022/10/03 02:35:24;;;;;;;27.73;4.30;;;11.30;99.90;;;;;;5140301;27;20043;-62
2022/10/03 02:38:13;;;;;;;24.02;3.10;;;11.30;99.90;;;;;;5111565;27;20049;-62
2022/10/03 02:40:38;;;;;;;28.75;3.92;;;11.30;99.90;;;;;;5100998;28;20049;-62
2022/10/03 02:43:25;;;;;;;25.77;3.75;;;11.30;99.90;;;;;;5132741;27;20379;-62
2022/10/03 02:45:57;;;;;;;22.90;3.33;;;11.20;99.90;;;;;;5127266;27;20383;-62
2022/10/03 02:48:46;;;;;;;17.42;3.15;;;11.20;99.90;;;;;;5138603;27;20775;-62
2022/10/03 02:51:32;;;;;;;22.23;3.25;;;11.30;99.90;;;;;;5106951;27;20054;-63
2022/10/03 02:54:19;;;;;;;18.60;2.90;;;11.20;99.90;;;;;;5122684;27;20038;-62
2022/10/03 02:57:21;;;;;;;21.00;3.07;;;11.20;99.90;;;;;;5145429;27;20042;-62
2022/10/03 03:00:13;;;;;;;24.67;3.30;;;11.10;99.90;;;;;;5066573;27;20381;-62
2022/10/03 03:03:30;;;;;;;16.38;2.90;;;11.10;99.90;;;;;;5111258;27;20139;-62
2022/10/03 03:06:34;;;;;;;17.23;3.25;;;11.10;99.90;;;;;;5093205;27;20050;-63
2022/10/03 03:09:01;;;;;;;15.68;3.03;;;11.20;99.90;;;;;;5112971;27;20043;-63
2022/10/03 03:11:43;;;;;;;19.90;3.08;;;11.10;99.90;;;;;;5132053;27;20058;-63
2022/10/03 03:14:37;;;;;;;15.43;3.05;;;11.10;99.90;;;;;;5143456;27;20156;-63
2022/10/03 03:17:20;;;;;;;22.15;2.72;;;11.10;99.90;;;;;;5149833;27;20046;-63
2022/10/03 03:20:10;;;;;;;12.25;2.35;;;11.10;99.90;;;;;;5117114;27;20035;-63
2022/10/03 03:23:09;;;;;;;17.05;2.60;;;11.10;99.90;;;;;;5114325;27;20470;-63
2022/10/03 03:25:48;;;;;;;19.13;3.28;;;11.10;99.90;;;;;;5108382;27;20058;-63
2022/10/03 03:29:05;;;;;;;18.48;4.22;;;11.00;99.90;;;;;;5122773;27;20042;-63
2022/10/03 03:31:43;;;;;;;21.83;4.07;;;11.00;99.90;;;;;;5086692;27;20046;-63
2022/10/03 03:34:34;;;;;;;15.60;2.50;;;11.00;99.90;;;;;;5143567;27;20409;-64
2022/10/03 03:37:57;;;;;;;18.58;2.80;;;11.00;99.90;;;;;;5131039;27;20045;-63
2022/10/03 03:40:31;;;;;;;15.30;2.67;;;11.00;99.90;;;;;;5007964;28;20132;-63
2022/10/03 03:43:03;;;;;;;20.90;3.47;;;11.00;99.90;;;;;;5044089;28;20075;-64
2022/10/03 03:45:41;;;;;;;15.13;2.83;;;10.90;99.90;;;;;;5086768;27;20411;-62
2022/10/03 03:48:28;;;;;;;14.52;3.17;;;10.90;99.90;;;;;;5111334;27;20191;-63
2022/10/03 03:51:17;;;;;;;16.38;2.72;;;10.90;99.90;;;;;;5145203;27;20118;-62
2022/10/03 03:53:58;;;;;;;19.52;2.60;;;11.00;99.90;;;;;;5103082;27;20051;-62
2022/10/03 03:56:47;;;;;;;19.05;2.95;;;11.00;99.90;;;;;;5136782;27;20067;-62
2022/10/03 03:59:34;;;;;;;17.00;3.10;;;11.00;99.90;;;;;;5134229;27;20303;-62
2022/10/03 04:02:13;;;;;;;23.67;3.00;;;11.00;99.90;;;;;;5148789;27;20070;-62
2022/10/03 04:04:43;;;;;;;13.50;2.20;;;10.90;99.90;;;;;;5128318;27;20039;-61
2022/10/03 04:07:22;;;;;;;21.67;3.08;;;11.00;99.90;;;;;;5122331;27;20051;-62
2022/10/03 04:10:09;;;;;;;15.85;2.92;;;10.90;99.90;;;;;;5127352;27;20046;-62
2022/10/03 04:12:46;;;;;;;18.83;2.85;;;10.90;99.90;;;;;;5123360;27;20099;-61
2022/10/03 04:15:33;;;;;;;15.98;2.65;;;10.90;99.90;;;;;;5086628;27;20422;-62
2022/10/03 04:21:07;;;;;;;18.90;2.58;;;10.90;99.90;;;;;;5135188;27;20054;-62
2022/10/03 04:23:49;;;;;;;24.73;3.10;;;10.90;99.90;;;;;;5125493;27;20503;-62
2022/10/03 04:26:33;;;;;;;19.70;3.00;;;10.90;99.90;;;;;;5147946;27;20418;-62
2022/10/03 04:29:29;;;;;;;24.35;3.88;;;10.90;99.90;;;;;;5127467;27;20123;-62
2022/10/03 04:32:33;;;;;;;24.75;3.65;;;10.80;99.90;;;;;;5124128;27;20042;-63
2022/10/03 04:35:18;;;;;;;24.33;3.88;;;10.80;99.90;;;;;;5148447;27;20103;-63
2022/10/03 04:38:04;;;;;;;17.42;3.03;;;10.70;99.90;;;;;;5123470;27;20130;-63
2022/10/03 04:40:57;;;;;;;13.77;2.70;;;10.80;99.90;;;;;;5126992;27;20110;-63
2022/10/03 04:43:43;;;;;;;24.23;3.05;;;10.70;99.90;;;;;;5133532;27;20043;-63
2022/10/03 04:46:21;;;;;;;24.67;3.90;;;10.70;99.90;;;;;;5129381;27;20046;-63
2022/10/03 04:49:05;;;;;;;18.70;2.70;;;10.70;99.90;;;;;;5147785;27;20818;-64
2022/10/03 04:51:43;;;;;;;14.98;2.80;;;10.70;99.90;;;;;;5126226;27;20554;-63
2022/10/03 04:54:15;;;;;;;24.55;3.08;;;10.60;99.90;;;;;;5103719;27;20055;-62
2022/10/03 04:56:51;;;;;;;23.85;3.72;;;10.70;99.90;;;;;;5124119;27;20043;-63
2022/10/03 04:59:45;;;;;;;19.55;4.13;;;10.70;99.90;;;;;;5127769;27;20039;-63
2022/10/03 05:02:24;;;;;;;22.42;3.13;;;10.60;99.90;;;;;;5140772;27;20038;-63
2022/10/03 05:04:57;;;;;;;;;;;10.60;99.90;;;;;;5125416;27;20394;-63
2022/10/03 05:07:44;;;;;;;20.08;2.85;;;10.50;99.90;;;;;;5120932;27;20216;-63
2022/10/03 05:10:49;;;;;;;22.38;3.80;;;10.50;99.90;;;;;;5106656;27;20043;-62
2022/10/03 05:13:32;;;;;;;31.60;3.95;;;10.50;99.90;;;;;;5128768;27;20550;-63
2022/10/03 05:16:13;;;;;;;29.08;3.88;;;10.50;99.90;;;;;;5123445;27;20047;-62
2022/10/03 05:19:16;;;;;;;23.15;3.60;;;10.50;99.90;;;;;;5127300;27;20035;-63
2022/10/03 05:22:01;;;;;;;18.20;3.63;;;10.50;99.90;;;;;;5126265;27;20051;-63
2022/10/03 05:24:44;;;;;;;17.58;3.10;;;10.50;99.90;;;;;;5112940;27;20053;-63
2022/10/03 05:27:17;;;;;;;17.98;3.30;;;10.50;99.90;;;;;;5118866;27;20412;-62
2022/10/03 05:30:16;;;;;;;20.83;4.22;;;10.50;99.90;;;;;;5147196;27;20797;-63
2022/10/03 05:32:54;;;;;;;;;;;10.50;99.90;;;;;;5119567;27;20070;-63
2022/10/03 05:35:58;;;;;;;20.80;3.40;;;10.60;99.90;;;;;;5097684;28;19916;-62
2022/10/03 05:38:33;;;;;;;14.32;2.67;;;10.50;99.90;;;;;;5105462;27;20531;-63
2022/10/03 05:41:10;;;;;;;23.95;3.70;;;10.60;99.90;;;;;;5126711;27;20043;-63
2022/10/03 05:43:48;;;;;;;15.02;3.50;;;10.60;99.90;;;;;;5099292;28;20047;-64
2022/10/03 05:46:22;;;;;;;15.43;3.10;;;10.60;99.90;;;;;;5119268;27;20051;-63
2022/10/03 05:48:57;;;;;;;22.38;3.70;;;10.60;99.90;;;;;;5103554;28;20071;-63
2022/10/03 05:51:53;;;;;;;17.27;3.00;;;10.60;99.90;;;;;;5099681;28;20051;-63
2022/10/03 05:54:44;;;;;;;19.75;3.38;;;10.60;99.90;;;;;;5117927;28;20053;-63
2022/10/03 05:57:40;;;;;;;17.10;3.33;;;10.60;99.90;;;;;;5124278;28;20038;-62
2022/10/03 06:00:44;;;;;;;18.60;3.50;;;10.60;99.90;;;;;;5110590;28;20055;-63
2022/10/03 06:03:27;;;;;;;18.75;3.20;;;10.70;99.90;;;;;;5106772;28;20035;-63
2022/10/03 06:06:06;;;;;;;19.15;2.55;;;10.70;99.90;;;;;;5115966;28;20086;-62
2022/10/03 06:08:57;;;;;;;14.95;2.60;;;10.70;99.90;;;;;;5128828;28;20043;-62
2022/10/03 06:11:34;;;;;;;9.82;2.22;;;10.70;99.90;;;;;;5122495;28;20499;-63
2022/10/03 06:14:19;;;;;;;16.42;2.70;;;10.70;99.90;;;;;;5117012;28;20088;-63
2022/10/03 06:17:09;;;;;;;18.63;3.10;;;10.70;99.90;;;;;;5121785;28;20047;-62
2022/10/03 06:19:53;;;;;;;13.90;2.72;;;10.60;99.90;;;;;;5125758;27;20082;-62
2022/10/03 06:23:02;;;;;;;18.20;2.60;;;10.60;99.90;;;;;;5128147;28;20047;-63
2022/10/03 06:26:13;;;;;;;12.55;2.42;;;10.70;99.90;;;;;;5087959;28;20043;-63
2022/10/03 06:28:42;;;;;;;16.92;2.60;;;10.70;99.90;;;;;;5128692;28;20050;-62
2022/10/03 06:31:10;;;;;;;;;;;10.70;99.90;;;;;;5124974;28;20101;-61
2022/10/03 06:33:55;;;;;;;19.00;3.10;;;10.70;99.90;;;;;;5127339;28;19966;-61
2022/10/03 06:36:26;;;;;;;13.23;2.20;;;10.70;99.90;;;;;;5116349;28;20123;-61
2022/10/03 06:38:52;;;;;;;17.27;2.50;;;10.70;99.90;;;;;;5121860;28;20039;-62
2022/10/03 06:41:30;;;;;;;15.07;3.08;;;10.80;99.90;;;;;;5119500;28;20044;-61
2022/10/03 06:44:31;;;;;;;15.43;2.92;;;10.80;99.90;;;;;;5118201;27;20754;-62
2022/10/03 06:47:03;;;;;;;17.77;2.95;;;10.80;99.90;;;;;;5118213;27;20059;-62
2022/10/03 06:49:52;;;;;;;18.75;2.95;;;10.80;99.90;;;;;;5112838;27;20518;-62
2022/10/03 06:52:30;;;;;;;18.58;3.00;;;10.80;99.90;;;;;;5128359;27;20050;-62
2022/10/03 06:55:23;;;;;;;20.70;3.15;;;10.80;99.90;;;;;;5126447;27;20053;-62
2022/10/03 06:58:14;;;;;;;13.95;2.75;;;10.90;99.90;;;;;;5126378;27;20151;-62
2022/10/03 07:01:01;;;;;;;21.15;2.85;;;10.90;99.90;;;;;;5125299;27;20074;-62
2022/10/03 07:03:50;;;;;;;14.45;3.25;;;10.90;99.90;;;;;;5124045;27;20067;-62
2022/10/03 07:06:18;;;;;;;;;;;10.90;99.90;;;;;;5122828;27;20043;-62
2022/10/03 07:09:11;;;;;;;21.13;3.05;;;11.00;99.90;;;;;;5132522;27;19911;-62
2022/10/03 07:11:46;;;;;;;16.50;3.10;;;11.10;99.90;;;;;;5126546;27;20467;-62
2022/10/03 07:14:54;;;;;;;17.85;2.95;;;11.10;99.90;;;;;;5124783;27;20449;-62
2022/10/03 07:17:38;;;;;;;19.77;3.38;;;11.10;99.90;;;;;;5126438;27;20043;-62
2022/10/03 07:20:04;;;;;;;17.63;3.42;;;11.10;99.90;;;;;;5124648;27;20466;-62
2022/10/03 07:22:42;;;;;;;20.95;2.78;;;11.20;99.90;;;;;;5128668;27;20054;-62
2022/10/03 07:25:38;;;;;;;15.23;3.08;;;11.20;99.90;;;;;;5125524;27;20122;-62
2022/10/03 07:28:29;;;;;;;24.95;2.92;;;11.30;99.90;;;;;;5125008;27;20121;-62
2022/10/03 07:31:04;;;;;;;12.07;2.55;;;11.40;99.90;;;;;;5129822;27;20058;-61
2022/10/03 07:33:45;;;;;;;20.13;2.88;;;11.40;99.90;;;;;;5111359;28;20237;-62
2022/10/03 07:39:17;;;;;;;17.20;3.05;;;11.50;99.90;;;;;;5131945;27;20134;-61
2022/10/03 07:42:09;;;;;;;20.40;2.55;;;11.60;99.90;;;;;;5122548;27;20096;-62
2022/10/03 07:44:41;;;;;;;13.75;2.20;;;11.60;99.90;;;;;;5125358;27;20554;-62
2022/10/03 07:47:15;;;;;;;20.80;2.85;;;11.60;99.90;;;;;;5124791;27;20448;-63
2022/10/03 07:50:00;;;;;;;15.00;2.63;;;11.70;99.90;;;;;;5131116;27;20039;-62
2022/10/03 07:52:25;;;;;;;17.60;2.97;;;11.70;99.90;;;;;;5125954;27;20050;-61
2022/10/03 07:55:18;;;;;;;20.42;2.42;;;11.80;99.90;;;;;;5129523;27;20467;-61
2022/10/03 07:58:13;;;;;;;16.85;2.58;;;11.80;99.90;;;;;;5125048;27;20472;-62
2022/10/03 08:01:23;;;;;;;11.90;2.10;;;11.90;99.90;;;;;;5116491;27;20042;-62
2022/10/03 08:04:26;;;;;;;16.48;2.30;;;11.90;99.90;;;;;;5096322;27;20039;-62
2022/10/03 08:07:14;;;;;;;18.33;2.22;;;12.00;99.90;;;;;;5122473;27;20043;-62
2022/10/03 08:09:40;;;;;;;15.63;2.03;;;12.10;99.90;;;;;;5114560;27;20356;-62
2022/10/03 08:12:27;;;;;;;13.63;2.70;;;12.10;99.90;;;;;;5131849;27;20043;-62
2022/10/03 08:15:32;;;;;;;17.40;2.35;;;12.10;99.90;;;;;;5130081;27;20142;-62
2022/10/03 08:18:22;;;;;;;21.42;2.67;;;12.20;99.90;;;;;;5110242;27;20046;-62
2022/10/03 08:20:56;;;;;;;18.50;2.75;;;12.30;99.90;;;;;;5127881;27;20540;-62
2022/10/03 08:23:44;;;;;;;15.02;2.50;;;12.40;99.90;;;;;;5122342;27;20478;-62
2022/10/03 08:26:50;;;;;;;9.53;1.67;;;12.40;99.90;;;;;;5128315;27;20050;-62
2022/10/03 08:29:53;;;;;;;19.38;2.88;;;12.50;99.90;;;;;;5125536;27;20383;-62
2022/10/03 08:32:24;;;;;;;15.52;2.30;;;12.50;99.90;;;;;;5134197;27;20077;-62
2022/10/03 08:35:18;;;;;;;15.02;2.70;;;12.50;99.90;;;;;;5145201;27;20151;-62
2022/10/03 08:37:50;;;;;;;15.88;3.10;;;12.50;99.90;;;;;;5120411;27;20382;-62
2022/10/03 08:40:28;;;;;;;15.68;2.40;;;12.60;99.90;;;;;;5146999;27;20051;-62
2022/10/03 08:43:05;;;;;;;13.95;2.15;;;12.60;99.90;;;;;;5115388;27;20054;-62
2022/10/03 08:46:12;;;;;;;19.47;2.80;;;12.70;99.90;;;;;;5105683;27;20051;-65
2022/10/03 08:49:23;;;;;;;20.65;2.58;;;12.80;99.90;;;;;;5102978;27;20076;-65
2022/10/03 08:52:01;;;;;;;14.05;3.03;;;12.80;99.90;;;;;;5107394;27;20053;-67
2022/10/03 08:54:52;;;;;;;16.35;2.92;;;13.00;99.90;;;;;;5114588;27;20107;-64
2022/10/03 08:57:36;;;;;;;22.30;3.47;;;13.10;99.90;;;;;;5114980;27;20053;-68
2022/10/03 09:00:15;;;;;;;17.45;2.42;;;13.20;99.90;;;;;;5133614;27;20045;-70
2022/10/03 09:03:27;;;;;;;11.82;2.22;;;13.20;99.90;;;;;;5145629;27;20140;-67
2022/10/03 09:06:23;;;;;;;12.07;2.30;;;13.30;99.90;;;;;;5128181;27;20043;-69
2022/10/03 09:08:52;;;;;;;13.85;2.40;;;13.40;99.90;;;;;;5090573;27;20663;-65
2022/10/03 09:11:41;;;;;;;15.05;2.55;;;13.50;99.90;;;;;;5121359;27;20046;-66
2022/10/03 09:14:26;;;;;;;17.80;2.78;;;13.50;99.90;;;;;;5088108;27;20538;-66
2022/10/03 09:17:06;;;;;;;16.27;2.65;;;13.60;99.90;;;;;;5125600;27;20042;-66
2022/10/03 09:20:10;;;;;;;15.02;2.40;;;13.70;99.90;;;;;;5128871;27;20043;-66
2022/10/03 09:22:44;;;;;;;13.20;2.35;;;13.70;99.90;;;;;;5125553;27;20050;-66
2022/10/03 09:25:22;;;;;;;15.15;2.67;;;13.70;99.90;;;;;;5148103;27;20034;-65
2022/10/03 09:28:32;;;;;;;12.40;2.30;;;13.80;99.90;;;;;;5148514;27;20042;-66
2022/10/03 09:31:10;;;;;;;15.18;2.03;;;13.80;99.90;;;;;;5112865;27;20041;-65
2022/10/03 09:34:08;;;;;;;13.80;2.30;;;13.90;99.90;;;;;;5112901;27;20125;-65
2022/10/03 09:36:33;;;;;;;;;;;14.00;99.90;;;;;;5113555;27;20057;-66
2022/10/03 09:39:07;;;;;;;18.23;2.90;;;14.10;99.90;;;;;;5096690;27;19923;-66
2022/10/03 09:42:01;;;;;;;14.18;1.95;;;14.10;99.90;;;;;;5105078;27;20047;-67
2022/10/03 09:44:42;;;;;;;11.70;2.03;;;14.20;99.90;;;;;;5146332;27;20034;-66
2022/10/03 09:47:26;;;;;;;14.50;2.10;;;14.20;99.90;;;;;;5148320;27;20050;-63
2022/10/03 09:50:10;;;;;;;14.00;2.55;;;14.30;99.90;;;;;;5133107;27;20054;-61
2022/10/03 09:53:12;;;;;;;13.93;2.72;;;14.30;99.90;;;;;;5147163;27;20110;-62
2022/10/03 09:56:13;;;;;;;15.45;2.75;;;14.30;99.90;;;;;;5133530;27;20471;-62
2022/10/03 09:58:41;;;;;;;15.13;2.40;;;14.40;99.90;;;;;;5150950;27;20134;-61
2022/10/03 10:01:22;;;;;;;16.40;2.25;;;14.50;99.90;;;;;;5124495;28;20543;-62
2022/10/03 10:04:19;;;;;;;12.20;2.05;;;14.70;99.90;;;;;;5089199;28;20158;-63
2022/10/03 10:06:45;;;;;;;11.27;2.45;;;14.60;99.90;;;;;;5082123;27;20038;-62
2022/10/03 10:09:32;;;;;;;13.70;2.35;;;14.50;99.90;;;;;;5132220;27;20034;-62
2022/10/03 10:12:29;;;;;;;11.90;2.17;;;14.50;99.90;;;;;;5122128;27;20046;-63
2022/10/03 10:15:22;;;;;;;11.95;2.28;;;14.60;99.90;;;;;;5132188;27;20818;-63
2022/10/03 10:17:57;;;;;;;17.52;2.42;;;14.40;99.90;;;;;;5149795;27;20062;-62
2022/10/03 10:20:31;;;;;;;14.50;2.45;;;14.50;99.90;;;;;;5147545;27;20043;-62
2022/10/03 10:23:13;;;;;;;16.13;2.58;;;14.40;99.90;;;;;;5136690;27;20091;-62
2022/10/03 10:26:08;;;;;;;12.15;2.13;;;14.40;99.90;;;;;;5112925;27;20108;-62
2022/10/03 10:28:52;;;;;;;11.82;2.22;;;14.30;99.90;;;;;;5135941;27;20471;-62
2022/10/03 10:31:39;;;;;;;13.10;2.45;;;14.30;99.90;;;;;;5146975;27;20052;-61
2022/10/03 10:34:08;;;;;;;8.75;1.75;;;14.30;99.90;;;;;;5123689;27;20101;-62
2022/10/03 10:36:52;;;;;;;;;;;14.30;99.90;;;;;;5143649;27;20501;-62
2022/10/03 10:39:53;;;;;;;12.20;2.00;;;14.10;99.90;;;;;;5146382;27;20277;-62
2022/10/03 10:42:53;;;;;;;11.85;2.17;;;14.00;99.90;;;;;;5131184;27;20049;-61
2022/10/03 10:45:38;;;;;;;11.00;2.38;;;13.90;99.90;;;;;;5139974;27;20043;-62
2022/10/03 10:48:42;;;;;;;10.77;2.10;;;13.90;99.90;;;;;;5134703;27;20070;-61
2022/10/03 10:51:35;;;;;;;12.55;2.10;;;14.00;99.90;;;;;;5061694;27;20048;-64
2022/10/03 10:54:19;;;;;;;11.10;2.03;;;14.00;99.90;;;;;;5152864;27;20470;-61
2022/10/03 10:56:56;;;;;;;11.98;1.92;;;14.10;99.90;;;;;;5093883;27;20539;-61
2022/10/03 10:59:43;;;;;;;9.45;1.88;;;14.10;99.90;;;;;;5125389;27;20485;-61
2022/10/03 11:02:22;;;;;;;9.13;1.38;;;14.10;99.90;;;;;;5128907;27;20038;-63
2022/10/03 11:05:28;;;;;;;8.07;1.73;;;14.20;99.90;;;;;;5092020;27;20433;-61
2022/10/03 11:08:22;;;;;;;14.60;2.60;;;14.20;99.90;;;;;;5130934;27;20494;-61
2022/10/03 11:11:09;;;;;;;10.18;1.80;;;14.40;99.90;;;;;;5126573;27;20460;-61
2022/10/03 11:14:09;;;;;;;8.77;1.90;;;14.50;99.90;;;;;;5114838;27;20043;-62
2022/10/03 11:17:03;;;;;;;11.85;1.50;;;14.50;99.90;;;;;;5133031;27;20291;-63
2022/10/03 11:19:53;;;;;;;9.77;1.60;;;15.00;99.20;;;;;;5143063;27;20042;-62
2022/10/03 11:22:37;;;;;;;13.80;1.70;;;14.70;99.70;;;;;;5142042;27;20130;-62
2022/10/03 11:25:31;;;;;;;6.15;1.40;;;14.60;98.50;;;;;;5148729;27;20043;-62
2022/10/03 11:28:25;;;;;;;7.07;1.55;;;14.90;98.20;;;;;;5146484;27;20073;-62
2022/10/03 11:31:35;;;;;;;6.88;1.75;;;15.10;97.70;;;;;;5151581;27;20043;-62
2022/10/03 11:34:20;;;;;;;7.85;1.60;;;15.90;96.40;;;;;;5091341;27;20093;-63
2022/10/03 11:37:08;;;;;;;7.43;1.48;;;16.70;94.30;;;;;;5138827;27;20050;-64
2022/10/03 11:39:37;;;;;;;6.20;1.45;;;17.60;92.40;;;;;;5133316;27;20479;-63
2022/10/03 11:42:32;;;;;;;9.00;2.05;;;17.70;92.60;;;;;;5130147;27;20050;-63
2022/10/03 11:45:27;;;;;;;9.70;1.77;;;17.60;92.80;;;;;;5145927;27;20066;-63
2022/10/03 11:48:12;;;;;;;6.30;1.73;;;17.70;92.70;;;;;;5115162;27;20038;-63
2022/10/03 11:51:02;;;;;;;7.85;1.77;;;17.80;92.10;;;;;;5148141;27;20043;-62
2022/10/03 11:53:36;;;;;;;8.48;2.38;;;17.10;94.20;;;;;;5129017;27;20039;-62
2022/10/03 11:56:32;;;;;;;8.40;1.60;;;16.60;95.90;;;;;;5134589;27;20755;-62
2022/10/03 11:59:13;;;;;;;9.85;1.80;;;16.20;96.50;;;;;;5071420;27;20092;-63
2022/10/03 12:02:11;;;;;;;10.05;2.15;;;16.00;96.80;;;;;;5143461;27;20112;-62
2022/10/03 12:04:45;;;;;;;;;;;16.10;96.20;;;;;;5106060;27;20072;-62
2022/10/03 12:10:30;;;;;;;7.57;1.67;;;15.80;96.80;;;;;;5133358;27;20554;-61
2022/10/03 12:12:55;;;;;;;8.45;1.88;;;15.60;96.70;;;;;;5127113;27;20405;-64
2022/10/03 12:15:51;;;;;;;9.13;1.90;;;15.40;97.00;;;;;;5124294;27;20099;-62
2022/10/03 12:18:41;;;;;;;10.07;1.92;;;15.40;97.80;;;;;;5104479;27;20050;-62
2022/10/03 12:21:08;;;;;;;6.90;1.45;;;15.20;99.00;;;;;;5142290;27;20287;-64
2022/10/03 12:24:12;;;;;;;13.82;2.42;;;15.10;99.90;;;;;;5114997;27;20078;-65
2022/10/03 12:27:02;;;;;;;7.20;1.70;;;15.00;99.90;;;;;;5147251;27;20057;-62
2022/10/03 12:29:31;;;;;;;11.07;1.67;;;14.90;99.90;;;;;;5132820;27;20053;-62
2022/10/03 12:32:15;;;;;;;10.55;1.60;;;14.90;99.90;;;;;;5119330;27;20061;-63
2022/10/03 12:34:50;;;;;;;10.68;1.95;;;15.30;99.90;;;;;;5140668;27;20148;-62
2022/10/03 12:37:32;;;;;;;12.18;2.25;;;16.10;98.20;;;;;;5125051;27;20487;-63
2022/10/03 12:40:16;;;;;;;11.43;1.77;;;17.10;96.50;;;;;;5128427;27;20039;-65
2022/10/03 12:43:02;;;;;;;7.28;1.90;;;18.60;93.00;;;;;;5113011;27;20146;-63
2022/10/03 12:45:36;;;;;;;9.48;1.90;;;19.30;90.80;;;;;;5119840;27;20514;-67
2022/10/03 12:48:41;;;;;;;6.72;1.60;;;20.30;88.50;;;;;;5106474;27;20559;-66
2022/10/03 12:51:32;;;;;;;12.18;1.92;;;20.00;84.70;;;;;;5147506;27;20125;-68
2022/10/03 12:54:03;;;;;;;5.18;1.50;;;19.70;85.60;;;;;;5137996;27;20742;-68
2022/10/03 12:56:36;;;;;;;6.38;1.70;;;19.80;82.70;;;;;;5138805;27;20053;-68
2022/10/03 12:59:22;;;;;;;10.00;2.22;;;20.60;81.60;;;;;;5138226;27;20043;-68
2022/10/03 13:02:07;;;;;;;6.20;1.80;;;20.50;80.80;;;;;;5129285;27;20042;-68
2022/10/03 13:04:38;;;;;;;9.43;1.83;;;20.00;82.30;;;;;;5115286;27;20344;-68
2022/10/03 13:07:23;;;;;;;8.20;2.03;;;20.20;81.20;;;;;;5149570;27;20817;-68
2022/10/03 13:10:21;;;;;;;7.22;1.55;;;19.90;81.10;;;;;;5119846;27;20047;-67
2022/10/03 13:12:59;;;;;;;7.18;2.13;;;19.40;82.60;;;;;;5126590;27;20122;-67
2022/10/03 13:15:37;;;;;;;7.00;1.60;;;18.70;86.30;;;;;;5115759;27;20057;-68
2022/10/03 13:18:34;;;;;;;8.05;1.10;;;18.20;87.60;;;;;;5128188;27;20066;-68
2022/10/03 13:21:08;;;;;;;6.95;1.35;;;17.40;89.80;;;;;;5132540;27;20490;-67
2022/10/03 13:23:41;;;;;;;9.57;1.88;;;17.10;91.50;;;;;;5129679;27;20085;-67
2022/10/03 13:26:20;;;;;;;7.25;1.52;;;16.80;91.90;;;;;;5124033;27;20073;-66
2022/10/03 13:29:12;;;;;;;9.50;1.77;;;16.60;92.60;;;;;;5097299;27;20107;-66
2022/10/03 13:31:54;;;;;;;6.28;1.40;;;16.50;93.30;;;;;;5116783;27;20039;-66
2022/10/03 13:34:23;;;;;;;7.88;1.45;;;16.50;94.10;;;;;;5107075;27;20145;-70
2022/10/03 13:36:54;;;;;;;6.65;1.42;;;16.30;94.00;;;;;;5078036;27;20057;-67
2022/10/03 13:39:31;;;;;;;6.55;1.65;;;16.30;94.20;;;;;;5126959;27;20041;-67
2022/10/03 13:42:10;;;;;;;5.15;1.38;;;16.20;94.40;;;;;;5094789;27;20063;-65
2022/10/03 13:45:02;;;;;;;6.72;1.33;;;16.20;94.60;;;;;;5108744;27;20118;-66
2022/10/03 13:47:54;;;;;;;8.57;1.17;;;16.10;93.90;;;;;;5115047;27;20035;-66
2022/10/03 13:50:57;;;;;;;6.03;1.02;;;15.90;93.90;;;;;;5123004;27;20114;-65
2022/10/03 13:53:42;;;;;;;5.38;1.52;;;15.80;94.40;;;;;;5111067;27;20038;-65
2022/10/03 13:56:32;;;;;;;10.48;1.80;;;15.90;94.70;;;;;;5098941;27;20054;-66
2022/10/03 13:59:10;;;;;;;8.00;1.50;;;16.00;94.00;;;;;;5132013;27;20058;-67
2022/10/03 14:02:02;;;;;;;7.15;1.75;;;16.10;93.90;;;;;;5142802;27;20337;-65
2022/10/03 14:04:46;;;;;;;7.40;1.60;;;16.00;94.40;;;;;;5091978;27;20047;-65
2022/10/03 14:07:12;;;;;;;7.80;1.65;;;16.00;94.40;;;;;;5139992;27;20382;-65
2022/10/03 14:10:15;;;;;;;8.82;1.85;;;15.90;94.70;;;;;;5126068;27;20134;-66
2022/10/03 14:13:00;;;;;;;6.15;1.60;;;16.00;95.10;;;;;;5129882;27;20035;-66
2022/10/03 14:15:57;;;;;;;6.85;1.42;;;16.30;94.50;;;;;;5140374;27;20046;-66
2022/10/03 14:18:46;;;;;;;8.38;1.48;;;16.30;94.00;;;;;;5106504;27;20045;-66
2022/10/03 14:21:38;;;;;;;7.68;1.52;;;16.10;94.40;;;;;;5111327;27;20375;-66
2022/10/03 14:24:19;;;;;;;11.40;2.10;;;16.10;94.70;;;;;;5125664;27;20126;-67
2022/10/03 14:26:56;;;;;;;6.47;1.30;;;15.90;94.10;;;;;;5111914;27;20043;-68